Time;durP1;ratioP1;P1;durP2;ratioP2;P2;SDS_P1;SDS_P2;PMS_P1;PMS_P2;Temp;Humidity;BMP_temperature;BMP_pressure;BME280_temperature;BME280_humidity;BME280_pressure;Samples;Min_cycle;Max_cycle;Signal;HPM_P1;HPM_P2
2021/01/15 00:01:16;;;;;;;42.75;21.45;;;;;;;-0.82;80.96;99130.31;119773;1144;65098;-89
2021/01/15 00:03:43;;;;;;;41.30;21.90;;;;;;;-0.85;79.98;99136.47;119898;1144;65277;-89
2021/01/15 00:06:18;;;;;;;40.23;17.83;;;;;;;-0.87;80.74;99134.80;120031;1144;65149;-93
2021/01/15 00:08:45;;;;;;;40.10;19.30;;;;;;;-0.90;80.44;99133.09;119801;1144;65199;-89
2021/01/15 00:11:17;;;;;;;28.70;13.13;;;;;;;-0.91;80.62;99128.77;120145;1145;65487;-87
2021/01/15 00:13:43;;;;;;;42.75;22.30;;;;;;;-0.94;80.68;99131.47;119910;1145;65638;-90
2021/01/15 00:16:22;;;;;;;44.77;21.77;;;;;;;-0.93;80.48;99133.19;119732;1145;65214;-88
2021/01/15 00:18:50;;;;;;;46.23;21.67;;;;;;;-0.92;81.06;99128.80;119775;1145;65146;-92
2021/01/15 00:21:19;;;;;;;40.73;19.93;;;;;;;-0.89;80.43;99132.23;120123;1147;65206;-90
2021/01/15 00:23:46;;;;;;;52.57;24.30;;;;;;;-0.91;81.14;99128.77;119802;1144;65018;-88
2021/01/15 00:26:21;;;;;;;40.17;17.80;;;;;;;-0.92;80.65;99126.19;119874;1147;65070;-88
2021/01/15 00:28:49;;;;;;;43.60;20.77;;;;;;;-0.95;80.57;99124.52;119859;1147;65250;-91
2021/01/15 00:31:15;;;;;;;43.47;20.40;;;;;;;-0.95;79.86;99126.27;119806;1144;65159;-88
2021/01/15 00:33:42;;;;;;;36.50;19.35;;;;;;;-0.92;81.05;99119.18;119948;1144;65217;-88
2021/01/15 00:36:10;;;;;;;33.77;19.37;;;;;;;-0.91;79.91;99126.14;120016;1144;65182;-87
2021/01/15 00:38:37;;;;;;;40.27;21.10;;;;;;;-0.92;80.68;99128.80;119988;1147;65105;-88
2021/01/15 00:41:08;;;;;;;46.73;22.83;;;;;;;-0.92;80.11;99132.28;119758;1147;65110;-89
2021/01/15 00:43:35;;;;;;;37.93;19.70;;;;;;;-0.92;80.07;99129.66;119782;1148;65102;-89
2021/01/15 00:46:02;;;;;;;42.47;19.27;;;;;;;-0.94;80.63;99125.37;119839;1148;65175;-88
2021/01/15 00:48:28;;;;;;;40.60;20.65;;;;;;;-0.95;80.78;99121.89;119958;1144;65178;-88
2021/01/15 00:50:55;;;;;;;40.83;19.57;;;;;;;-0.96;80.12;99125.38;119916;1144;65046;-87
2021/01/15 00:53:21;;;;;;;43.13;20.57;;;;;;;-0.98;80.96;99124.57;120110;1144;65232;-87
2021/01/15 00:55:50;;;;;;;38.83;20.47;;;;;;;-0.99;80.55;99128.09;120253;1145;65092;-87
2021/01/15 00:58:17;;;;;;;39.33;20.73;;;;;;;-0.98;80.28;99124.57;119904;1144;65081;-86
2021/01/15 01:00:43;;;;;;;39.43;18.87;;;;;;;-0.97;81.13;99128.05;119889;1145;65194;-89
2021/01/15 01:03:17;;;;;;;41.40;20.67;;;;;;;-1.00;80.50;99129.00;119824;1144;65082;-89
2021/01/15 01:05:43;;;;;;;42.10;19.57;;;;;;;-1.01;80.12;99135.14;120017;1145;65223;-88
2021/01/15 01:08:10;;;;;;;36.48;19.05;;;;;;;-0.99;80.66;99132.48;119855;1144;65079;-87
2021/01/15 01:10:37;;;;;;;35.67;18.17;;;;;;;-0.98;80.95;99139.44;119891;1144;65099;-90
2021/01/15 01:13:04;;;;;;;34.23;18.00;;;;;;;-0.98;80.65;99135.05;119800;1144;65169;-90
2021/01/15 01:15:30;;;;;;;41.00;20.90;;;;;;;-0.99;80.51;99129.86;119821;1144;65110;-87
2021/01/15 01:17:56;;;;;;;41.05;20.17;;;;;;;-1.01;80.72;99140.39;120020;1144;65554;-89
2021/01/15 01:20:23;;;;;;;36.15;20.02;;;;;;;-1.00;80.04;99136.86;119789;1144;65089;-88
2021/01/15 01:22:49;;;;;;;34.80;17.37;;;;;;;-1.02;80.92;99143.88;119827;1144;65190;-89
2021/01/15 01:25:17;;;;;;;38.07;19.33;;;;;;;-1.03;81.08;99143.92;119769;1144;65107;-88
2021/01/15 01:27:45;;;;;;;41.43;20.17;;;;;;;-1.05;80.90;99141.34;119800;1145;65085;-88
2021/01/15 01:30:14;;;;;;;38.30;19.47;;;;;;;-1.04;80.62;99148.30;119849;1145;65274;-87
2021/01/15 01:32:41;;;;;;;36.37;18.13;;;;;;;-1.03;80.97;99150.02;120138;1144;65161;-86
2021/01/15 01:35:08;;;;;;;36.65;19.80;;;;;;;-1.02;81.35;99156.98;119856;1145;65162;-86
2021/01/15 01:37:35;;;;;;;37.60;18.43;;;;;;;-1.03;81.01;99157.89;119890;1145;65221;-88
2021/01/15 01:40:03;;;;;;;33.77;17.90;;;;;;;-1.03;81.19;99155.27;119842;1144;64985;-87
2021/01/15 01:42:29;;;;;;;39.57;20.40;;;;;;;-1.05;80.59;99148.35;119804;1147;65263;-90
2021/01/15 01:44:56;;;;;;;40.47;21.33;;;;;;;-1.05;81.46;99156.22;119959;1144;65023;-89
2021/01/15 01:47:23;;;;;;;37.33;16.77;;;;;;;-1.06;81.10;99157.12;120040;1145;65135;-90
2021/01/15 01:49:49;;;;;;;36.45;18.85;;;;;;;-1.08;80.93;99154.54;119730;1145;65215;-91
2021/01/15 01:52:17;;;;;;;36.73;20.33;;;;;;;-1.09;81.08;99155.41;119812;1145;65004;-88
2021/01/15 01:54:46;;;;;;;38.97;19.90;;;;;;;-1.08;81.32;99151.92;119842;1145;65223;-88
2021/01/15 01:57:12;;;;;;;33.30;19.10;;;;;;;-1.05;80.41;99150.97;119863;1145;65150;-88
2021/01/15 01:59:39;;;;;;;33.35;16.60;;;;;;;-1.06;80.05;99151.88;119813;1145;65161;-90
2021/01/15 02:02:05;;;;;;;34.65;18.90;;;;;;;-1.07;80.65;99151.02;120060;1145;65174;-89
2021/01/15 02:04:32;;;;;;;39.00;20.90;;;;;;;-1.05;80.39;99161.45;119925;1144;65195;-86
2021/01/15 02:06:59;;;;;;;34.80;18.23;;;;;;;-1.03;81.46;99168.38;119814;1146;64964;-94
2021/01/15 02:10:08;;;;;;;32.45;17.25;;;;;;;-1.04;80.88;99164.03;120105;1147;65050;-90
2021/01/15 02:12:49;;;;;;;39.93;19.17;;;;;;;-1.05;80.49;99161.45;119379;1148;65131;-88
2021/01/15 02:15:18;;;;;;;33.40;19.07;;;;;;;-1.09;80.88;99164.13;119575;1148;65025;-88
2021/01/15 02:17:53;;;;;;;33.57;17.63;;;;;;;-1.07;81.25;99164.13;119380;1148;65098;-88
2021/01/15 02:20:57;;;;;;;30.70;18.00;;;;;;;-1.05;81.44;99164.94;119323;1148;65254;-89
2021/01/15 02:23:44;;;;;;;34.10;17.25;;;;;;;-1.04;80.15;99166.66;119530;1148;65037;-89
2021/01/15 02:26:53;;;;;;;29.43;16.30;;;;;;;-1.03;80.48;99172.75;119517;1148;65027;-89
2021/01/15 02:29:23;;;;;;;35.10;16.97;;;;;;;-1.03;80.11;99173.62;119350;1148;65040;-88
2021/01/15 02:32:27;;;;;;;32.77;16.90;;;;;;;-1.03;80.48;99165.75;119462;1148;65111;-90
2021/01/15 02:35:14;;;;;;;30.90;17.63;;;;;;;-1.03;81.35;99168.38;119352;1151;65168;-88
2021/01/15 02:38:06;;;;;;;35.60;19.33;;;;;;;-1.03;80.54;99170.99;119537;1148;65103;-86
2021/01/15 02:40:39;;;;;;;35.27;19.30;;;;;;;-1.03;80.64;99168.38;119396;1148;65139;-89
2021/01/15 02:43:07;;;;;;;29.73;17.17;;;;;;;-1.04;80.47;99176.28;119428;1148;65118;-89
2021/01/15 02:45:34;;;;;;;38.00;19.43;;;;;;;-1.05;80.85;99167.56;119439;1150;65261;-87
2021/01/15 02:48:03;;;;;;;33.35;17.10;;;;;;;-1.03;81.15;99172.75;119627;1148;65213;-88
2021/01/15 02:50:30;;;;;;;35.30;18.60;;;;;;;-1.04;80.14;99171.89;119861;1144;65110;-88
2021/01/15 02:52:57;;;;;;;34.67;17.50;;;;;;;-1.05;80.50;99170.18;119829;1144;65181;-89
2021/01/15 02:55:24;;;;;;;45.03;20.77;;;;;;;-1.05;80.52;99177.19;119880;1144;65076;-89
2021/01/15 02:57:51;;;;;;;45.07;22.37;;;;;;;-1.04;80.66;99176.28;119848;1145;65109;-91
2021/01/15 03:00:21;;;;;;;48.70;24.15;;;;;;;-1.05;80.49;99170.18;119794;1144;65072;-88
2021/01/15 03:03:09;;;;;;;53.63;26.57;;;;;;;-1.05;80.38;99177.19;120101;1144;65089;-89
2021/01/15 03:05:42;;;;;;;48.67;23.47;;;;;;;-1.04;81.29;99174.52;119881;1144;65217;-90
2021/01/15 03:08:09;;;;;;;47.00;21.40;;;;;;;-1.03;81.17;99183.23;119861;1144;65097;-89
2021/01/15 03:10:37;;;;;;;56.00;26.70;;;;;;;-1.07;80.63;99174.61;119938;1144;65069;-88
2021/01/15 03:13:06;;;;;;;42.97;19.97;;;;;;;-1.07;81.32;99168.50;120068;1144;65094;-89
2021/01/15 03:15:36;;;;;;;36.60;19.60;;;;;;;-1.10;80.62;99179.91;119929;1144;65107;-87
2021/01/15 03:18:05;;;;;;;34.47;18.33;;;;;;;-1.10;81.12;99180.77;120113;1144;65066;-89
2021/01/15 03:20:32;;;;;;;31.70;17.00;;;;;;;-1.09;80.38;99184.23;119917;1144;65078;-87
2021/01/15 03:22:58;;;;;;;29.13;16.00;;;;;;;-1.09;81.36;99176.38;119861;1147;65133;-89
2021/01/15 03:25:25;;;;;;;32.40;17.63;;;;;;;-1.10;80.64;99177.28;120225;1144;65197;-87
2021/01/15 03:27:54;;;;;;;33.03;17.43;;;;;;;-1.09;80.65;99187.72;119873;1145;65175;-87
2021/01/15 03:30:22;;;;;;;29.17;16.30;;;;;;;-1.04;80.71;99177.14;119938;1144;65203;-88
2021/01/15 03:32:51;;;;;;;29.63;16.97;;;;;;;-1.00;80.67;99177.94;119869;1144;65260;-87
2021/01/15 03:35:24;;;;;;;36.70;17.77;;;;;;;-1.01;81.21;99179.70;119882;1147;65116;-88
2021/01/15 03:37:54;;;;;;;33.10;17.47;;;;;;;-1.02;80.52;99169.23;119821;1147;65185;-87
2021/01/15 03:40:22;;;;;;;32.70;17.40;;;;;;;-1.04;80.45;99177.14;119906;1147;65018;-87
2021/01/15 03:42:48;;;;;;;31.90;15.70;;;;;;;-1.06;80.60;99178.08;120209;1145;65078;-89
2021/01/15 03:45:15;;;;;;;32.37;17.33;;;;;;;-1.09;80.96;99169.38;119869;1145;65127;-88
2021/01/15 03:47:42;;;;;;;39.15;18.70;;;;;;;-1.11;80.65;99165.94;119931;1144;65076;-87
2021/01/15 03:50:10;;;;;;;32.33;17.90;;;;;;;-1.10;80.76;99164.17;119836;1144;65219;-88
2021/01/15 03:52:37;;;;;;;29.70;16.10;;;;;;;-1.13;80.23;99172.13;119962;1145;65089;-91
2021/01/15 03:55:05;;;;;;;31.67;16.67;;;;;;;-1.18;80.62;99161.73;119912;1144;65170;-89
2021/01/15 03:57:31;;;;;;;30.70;16.63;;;;;;;-1.21;80.86;99159.20;119841;1144;65053;-89
2021/01/15 03:59:57;;;;;;;34.80;16.80;;;;;;;-1.22;80.71;99167.94;119846;1144;65102;-89
2021/01/15 04:02:24;;;;;;;36.83;17.30;;;;;;;-1.25;81.55;99178.50;120129;1144;65135;-87
2021/01/15 04:04:51;;;;;;;31.75;16.05;;;;;;;-1.25;80.44;99170.64;119863;1145;65079;-91
2021/01/15 04:07:18;;;;;;;31.97;17.17;;;;;;;-1.24;81.43;99171.50;119803;1147;65159;-89
2021/01/15 04:09:45;;;;;;;36.03;18.37;;;;;;;-1.24;80.33;99172.36;119862;1144;65537;-87
2021/01/15 04:12:11;;;;;;;37.15;18.35;;;;;;;-1.25;80.79;99178.50;120125;1145;65198;-87
2021/01/15 04:14:39;;;;;;;38.07;17.90;;;;;;;-1.23;80.92;99178.45;119809;1145;65089;-86
2021/01/15 04:17:06;;;;;;;45.30;20.63;;;;;;;-1.24;80.68;99168.88;119952;1145;65097;-91
2021/01/15 04:19:33;;;;;;;47.53;22.27;;;;;;;-1.22;81.38;99172.31;119906;1145;65099;-87
2021/01/15 04:21:59;;;;;;;51.10;22.90;;;;;;;-1.21;81.45;99168.80;120197;1144;65020;-89
2021/01/15 04:24:26;;;;;;;38.83;17.93;;;;;;;-1.21;80.47;99166.17;119894;1144;65239;-88
2021/01/15 04:26:54;;;;;;;35.10;17.73;;;;;;;-1.22;80.54;99174.94;119865;1144;65085;-87
2021/01/15 04:29:21;;;;;;;36.77;19.50;;;;;;;-1.22;81.11;99175.80;119936;1144;65136;-90
2021/01/15 04:31:47;;;;;;;35.17;20.80;;;;;;;-1.22;80.52;99181.03;120018;1146;65179;-88
2021/01/15 04:34:15;;;;;;;32.33;16.93;;;;;;;-1.22;80.76;99174.94;119831;1144;65551;-88
2021/01/15 04:36:42;;;;;;;43.67;20.03;;;;;;;-1.25;81.67;99177.64;120059;1144;65078;-87
2021/01/15 04:39:09;;;;;;;42.60;20.20;;;;;;;-1.23;80.74;99178.45;119823;1144;65163;-90
2021/01/15 04:41:36;;;;;;;48.47;21.00;;;;;;;-1.23;81.50;99186.32;119794;1144;65210;-90
2021/01/15 04:44:04;;;;;;;52.40;20.97;;;;;;;-1.24;80.78;99180.22;119900;1144;65106;-88
2021/01/15 04:46:30;;;;;;;49.40;21.40;;;;;;;-1.23;81.39;99186.32;119978;1144;65175;-88
2021/01/15 04:48:57;;;;;;;48.83;21.87;;;;;;;-1.24;81.36;99179.36;119886;1144;65111;-90
2021/01/15 04:51:27;;;;;;;44.67;18.90;;;;;;;-1.22;81.21;99193.28;120177;1144;65069;-87
2021/01/15 04:53:53;;;;;;;48.07;21.50;;;;;;;-1.21;80.96;99190.65;119972;1144;65201;-88
2021/01/15 04:56:30;;;;;;;39.10;18.70;;;;;;;-1.19;80.76;99182.75;119916;1144;65143;-89
2021/01/15 04:59:01;;;;;;;28.27;15.73;;;;;;;-1.17;81.13;99184.42;119844;1144;65193;-88
2021/01/15 05:01:45;;;;;;;28.30;14.10;;;;;;;-1.13;81.56;99190.47;120218;1145;65417;-88
2021/01/15 05:04:13;;;;;;;28.37;16.23;;;;;;;-1.13;80.69;99177.37;119807;1145;65172;-86
2021/01/15 05:06:47;;;;;;;35.53;17.93;;;;;;;-1.12;80.80;99192.19;119892;1145;65056;-89
2021/01/15 05:09:17;;;;;;;30.00;16.23;;;;;;;-1.12;80.72;99190.42;120203;1145;65104;-85
2021/01/15 05:11:44;;;;;;;34.17;16.90;;;;;;;-1.12;80.85;99192.19;119971;1144;65196;-88
2021/01/15 05:14:15;;;;;;;35.95;18.30;;;;;;;-1.12;80.86;99194.81;119838;1145;65078;-89
2021/01/15 05:16:47;;;;;;;31.50;15.30;;;;;;;-1.13;80.41;99190.47;119949;1145;65213;-90
2021/01/15 05:19:14;;;;;;;27.07;15.80;;;;;;;-1.13;81.43;99187.84;119911;1144;65205;-88
2021/01/15 05:21:42;;;;;;;32.80;18.10;;;;;;;-1.13;80.86;99193.95;119853;1144;65159;-88
2021/01/15 05:24:10;;;;;;;35.23;18.27;;;;;;;-1.12;80.84;99192.19;119956;1145;65178;-89
2021/01/15 05:26:37;;;;;;;35.47;17.50;;;;;;;-1.12;81.62;99197.43;119850;1145;65101;-89
2021/01/15 05:29:06;;;;;;;30.97;15.93;;;;;;;-1.12;81.36;99203.53;120082;1144;65156;-88
2021/01/15 05:31:57;;;;;;;29.47;16.23;;;;;;;-1.11;81.62;99201.77;119859;1144;65089;-89
2021/01/15 05:34:25;;;;;;;29.03;15.37;;;;;;;-1.06;81.91;99199.91;119828;1144;65220;-88
2021/01/15 05:36:53;;;;;;;33.30;16.97;;;;;;;-1.03;80.99;99204.20;119802;1144;65104;-88
2021/01/15 05:39:21;;;;;;;34.27;16.83;;;;;;;-1.04;80.55;99203.35;119804;1144;66565;-88
2021/01/15 05:41:50;;;;;;;30.43;16.60;;;;;;;-1.01;80.95;99205.92;119628;1144;65717;-88
2021/01/15 05:44:25;;;;;;;26.00;13.60;;;;;;;-1.01;81.53;99210.30;119845;1144;65084;-88
2021/01/15 05:46:52;;;;;;;32.35;17.35;;;;;;;-0.99;81.19;99206.73;119835;1144;65139;-87
2021/01/15 05:49:18;;;;;;;32.30;15.37;;;;;;;-0.97;81.43;99215.41;120150;1144;65189;-87
2021/01/15 05:51:45;;;;;;;37.90;17.60;;;;;;;-1.00;80.84;99206.78;119820;1144;65440;-86
2021/01/15 05:54:12;;;;;;;33.53;18.03;;;;;;;-1.00;81.82;99212.88;119798;1144;65184;-88
2021/01/15 05:56:39;;;;;;;31.20;16.75;;;;;;;-1.00;81.55;99204.16;119816;1144;65066;-90
2021/01/15 05:59:10;;;;;;;37.17;19.17;;;;;;;-1.02;80.99;99212.03;119868;1145;65103;-89
2021/01/15 06:01:39;;;;;;;46.77;20.07;;;;;;;-1.06;80.55;99220.02;119867;1145;65139;-89
2021/01/15 06:04:06;;;;;;;42.20;18.40;;;;;;;-1.07;81.56;99228.78;119872;1144;65104;-90
2021/01/15 06:06:32;;;;;;;39.10;18.65;;;;;;;-1.10;80.99;99219.22;119865;1145;65159;-87
2021/01/15 06:08:59;;;;;;;34.00;17.75;;;;;;;-1.12;80.47;99232.36;119718;1145;65417;-88
2021/01/15 06:11:26;;;;;;;32.33;16.50;;;;;;;-1.13;81.43;99222.78;120071;1144;65194;-85
2021/01/15 06:13:52;;;;;;;34.25;17.20;;;;;;;-1.13;81.01;99227.16;119811;1147;65084;-88
2021/01/15 06:16:19;;;;;;;40.30;19.80;;;;;;;-1.14;81.21;99230.68;119818;1144;65600;-87
2021/01/15 06:19:02;;;;;;;37.33;18.23;;;;;;;-1.16;81.26;99230.69;119809;1144;65226;-90
2021/01/15 06:21:34;;;;;;;36.70;18.60;;;;;;;-1.14;81.25;99233.30;120160;1144;65168;-88
2021/01/15 06:24:06;;;;;;;36.57;15.93;;;;;;;-1.09;81.36;99239.28;119873;1144;65193;-87
2021/01/15 06:26:40;;;;;;;37.57;19.37;;;;;;;-1.06;80.96;99239.23;120263;1147;65043;-86
2021/01/15 06:29:11;;;;;;;65.55;26.10;;;;;;;-1.06;81.77;99238.37;120118;1147;65205;-85
2021/01/15 06:31:49;;;;;;;108.07;37.30;;;;;;;-1.07;81.47;99239.27;121201;1144;65136;-90
2021/01/15 06:34:19;;;;;;;111.65;37.80;;;;;;;-1.09;81.16;99247.14;119854;1144;65108;-86
2021/01/15 06:36:54;;;;;;;115.97;38.63;;;;;;;-1.09;81.52;99241.90;119881;1144;65108;-87
2021/01/15 06:39:22;;;;;;;115.40;39.55;;;;;;;-1.12;81.47;99236.73;119397;1147;65105;-89
2021/01/15 06:42:02;;;;;;;65.60;28.93;;;;;;;-1.14;81.31;99246.41;119525;1146;65270;-88
2021/01/15 06:44:29;;;;;;;60.67;26.43;;;;;;;-1.15;80.99;99244.66;119847;1144;65284;-88
2021/01/15 06:47:02;;;;;;;41.43;22.07;;;;;;;-1.15;81.46;99237.65;119846;1148;65095;-88
2021/01/15 06:49:31;;;;;;;50.63;24.67;;;;;;;-1.15;81.92;99236.80;119881;1146;65152;-88
2021/01/15 06:51:59;;;;;;;68.30;30.05;;;;;;;-1.16;80.84;99233.31;119866;1146;65175;-88
2021/01/15 06:54:38;;;;;;;116.87;44.93;;;;;;;-1.17;81.33;99234.21;119860;1148;65157;-86
2021/01/15 06:57:15;;;;;;;70.73;28.20;;;;;;;-1.15;81.18;99236.80;119828;1144;65085;-88
2021/01/15 06:59:54;;;;;;;95.23;39.97;;;;;;;-1.14;81.84;99234.16;119840;1148;65156;-89
2021/01/15 07:02:26;;;;;;;63.57;26.03;;;;;;;-1.12;81.13;99248.09;119868;1146;65577;-88
2021/01/15 07:04:58;;;;;;;37.73;17.13;;;;;;;-1.13;81.15;99255.98;119815;1148;65619;-88
2021/01/15 07:07:32;;;;;;;45.30;19.50;;;;;;;-1.14;81.71;99249.89;119855;1147;65086;-87
2021/01/15 07:10:01;;;;;;;33.97;16.00;;;;;;;-1.12;81.28;99241.98;119877;1147;65267;-86
2021/01/15 07:12:27;;;;;;;32.93;17.83;;;;;;;-1.07;81.03;99241.89;119862;1147;65156;-88
2021/01/15 07:14:56;;;;;;;28.77;14.73;;;;;;;-1.08;80.99;99238.41;119829;1145;65104;-88
2021/01/15 07:17:37;;;;;;;28.10;15.05;;;;;;;-1.08;80.96;99248.89;119864;1147;65130;-86
2021/01/15 07:20:11;;;;;;;34.87;16.53;;;;;;;-1.08;81.76;99248.89;119844;1144;65018;-88
2021/01/15 07:22:48;;;;;;;27.47;14.77;;;;;;;-1.07;81.60;99240.13;119827;1147;65085;-89
2021/01/15 07:25:15;;;;;;;27.57;14.53;;;;;;;-1.07;80.69;99255.86;119931;1144;65496;-91
2021/01/15 07:27:42;;;;;;;32.20;14.17;;;;;;;-1.06;81.79;99256.72;119695;1144;65111;-90
2021/01/15 07:30:20;;;;;;;29.33;13.70;;;;;;;-1.04;80.87;99266.25;119847;1144;65446;-89
2021/01/15 07:32:53;;;;;;;31.27;16.20;;;;;;;-1.04;81.43;99276.74;119783;1144;65427;-88
2021/01/15 07:35:22;;;;;;;29.63;14.07;;;;;;;-1.01;81.02;99270.59;119797;1147;65195;-88
2021/01/15 07:37:49;;;;;;;25.50;13.27;;;;;;;-1.00;80.88;99270.55;119885;1144;65018;-88
2021/01/15 07:40:20;;;;;;;25.53;14.43;;;;;;;-1.00;80.88;99270.55;119814;1144;65108;-88
2021/01/15 07:43:00;;;;;;;34.97;16.80;;;;;;;-0.99;81.77;99280.13;119819;1144;65244;-89
2021/01/15 07:45:41;;;;;;;34.23;16.53;;;;;;;-0.96;81.29;99281.81;119753;1144;65082;-88
2021/01/15 07:48:08;;;;;;;39.43;18.03;;;;;;;-0.90;80.96;99279.05;119462;1144;65165;-86
2021/01/15 07:50:42;;;;;;;32.90;15.17;;;;;;;-0.87;81.82;99277.24;119683;1147;65201;-90
2021/01/15 07:53:14;;;;;;;34.93;16.93;;;;;;;-0.82;81.65;99283.25;119641;1146;65127;-88
2021/01/15 07:55:47;;;;;;;35.33;17.20;;;;;;;-0.76;82.02;99281.36;119672;1144;65108;-89
2021/01/15 07:58:14;;;;;;;31.00;17.60;;;;;;;-0.71;81.04;99280.36;119877;1146;65102;-87
2021/01/15 08:00:41;;;;;;;35.15;17.40;;;;;;;-0.65;82.12;99274.98;119894;1144;65216;-89
2021/01/15 08:03:08;;;;;;;28.50;15.20;;;;;;;-0.59;80.97;99279.22;119603;1147;65098;-89
2021/01/15 08:05:34;;;;;;;37.35;19.80;;;;;;;-0.57;80.64;99270.44;119761;1145;65171;-87
2021/01/15 08:08:19;;;;;;;38.40;18.20;;;;;;;-0.51;81.57;99272.02;119661;1147;65169;-87
2021/01/15 08:10:51;;;;;;;34.98;17.87;;;;;;;-0.44;81.16;99273.62;119860;1144;65108;-89
2021/01/15 08:13:22;;;;;;;48.53;24.37;;;;;;;-0.36;81.35;99278.69;119866;1146;65195;-91
2021/01/15 08:15:50;;;;;;;49.00;23.53;;;;;;;-0.35;80.83;99272.53;119844;1144;65095;-89
2021/01/15 08:18:18;;;;;;;46.23;21.50;;;;;;;-0.29;80.79;99265.37;119967;1144;65120;-88
2021/01/15 08:20:47;;;;;;;48.93;25.00;;;;;;;-0.20;81.43;99261.64;119899;1148;66035;-89
2021/01/15 08:23:24;;;;;;;41.20;20.07;;;;;;;-0.16;80.77;99268.55;119816;1147;65201;-90
2021/01/15 08:26:13;;;;;;;60.80;28.77;;;;;;;-0.09;80.52;99274.50;119794;1144;65181;-88
2021/01/15 08:28:39;;;;;;;67.95;31.40;;;;;;;-0.02;81.24;99270.81;119766;1147;65108;-90
2021/01/15 08:31:06;;;;;;;60.70;31.20;;;;;;;0.04;80.97;99264.55;119810;1144;65204;-89
2021/01/15 08:33:34;;;;;;;45.47;22.90;;;;;;;0.06;80.70;99268.84;119849;1145;65183;-86
2021/01/15 08:36:03;;;;;;;39.23;21.43;;;;;;;0.10;80.21;99264.39;119786;1144;65210;-88
2021/01/15 08:38:35;;;;;;;39.63;21.97;;;;;;;0.10;81.04;99275.75;119809;1144;65197;-89
2021/01/15 08:41:13;;;;;;;40.20;20.50;;;;;;;0.10;80.33;99278.38;119893;1144;65092;-89
2021/01/15 08:43:40;;;;;;;41.93;20.47;;;;;;;0.15;80.58;99278.27;119878;1144;65107;-89
2021/01/15 08:46:14;;;;;;;37.13;19.43;;;;;;;0.22;80.27;99279.82;119813;1145;65235;-90
2021/01/15 08:48:41;;;;;;;44.63;22.50;;;;;;;0.22;80.37;99285.08;119815;1145;65507;-90
2021/01/15 08:51:09;;;;;;;42.97;22.97;;;;;;;0.21;80.35;99283.36;119817;1145;65155;-91
2021/01/15 08:53:44;;;;;;;45.30;21.77;;;;;;;0.21;79.76;99288.61;120175;1144;65174;-89
2021/01/15 08:56:14;;;;;;;;;;;;;;;0.29;80.53;99291.02;119766;1144;65123;-89
2021/01/15 08:58:48;;;;;;;35.67;16.93;;;;;;;0.33;80.44;99288.28;120019;1144;65043;-90
2021/01/15 09:01:48;;;;;;;37.15;19.50;;;;;;;0.34;80.60;99283.89;119811;1147;65197;-89
2021/01/15 09:04:14;;;;;;;43.83;20.90;;;;;;;0.48;80.18;99290.48;119312;1149;65545;-89
2021/01/15 09:06:42;;;;;;;40.30;20.30;;;;;;;0.46;79.98;99291.44;119466;1148;65172;-91
2021/01/15 09:09:11;;;;;;;31.13;16.20;;;;;;;0.53;80.37;99295.62;119358;1148;65207;-91
2021/01/15 09:11:40;;;;;;;28.93;16.07;;;;;;;0.60;79.46;99305.05;119355;1150;65111;-88
2021/01/15 09:14:15;;;;;;;28.40;17.13;;;;;;;0.74;80.48;99302.03;119147;1151;65227;-87
2021/01/15 09:16:45;;;;;;;33.70;17.27;;;;;;;0.81;80.57;99296.55;119359;1148;65407;-89
2021/01/15 09:19:12;;;;;;;32.57;17.20;;;;;;;0.81;80.37;99296.55;119359;1148;65100;-89
2021/01/15 09:21:46;;;;;;;31.25;17.20;;;;;;;0.75;79.79;99294.09;119356;1150;65108;-87
2021/01/15 09:24:14;;;;;;;35.23;17.83;;;;;;;0.61;80.43;99298.03;119465;1150;65213;-88
2021/01/15 09:26:41;;;;;;;31.10;15.25;;;;;;;0.51;80.08;99302.69;119367;1151;65121;-90
2021/01/15 09:29:09;;;;;;;24.80;13.95;;;;;;;0.41;79.54;99302.06;119620;1150;65113;-89
2021/01/15 09:31:41;;;;;;;26.43;14.13;;;;;;;0.39;79.44;99298.63;119813;1150;65047;-86
2021/01/15 09:34:15;;;;;;;26.63;14.23;;;;;;;0.43;80.48;99305.50;119842;1150;65111;-91
2021/01/15 09:36:47;;;;;;;21.77;11.63;;;;;;;0.51;79.88;99307.95;119859;1150;65297;-90
2021/01/15 09:39:14;;;;;;;25.30;12.67;;;;;;;0.60;80.06;99315.56;119606;1149;65123;-87
2021/01/15 09:41:49;;;;;;;24.35;13.10;;;;;;;0.71;79.26;99310.02;120353;1144;65287;-88
2021/01/15 09:44:17;;;;;;;19.13;11.63;;;;;;;0.83;79.20;99303.52;120368;1144;65182;-90
2021/01/15 09:46:45;;;;;;;19.47;11.77;;;;;;;1.08;79.39;99309.80;120096;1147;65124;-90
2021/01/15 09:49:14;;;;;;;21.10;12.10;;;;;;;1.25;78.80;99310.16;120078;1144;65136;-92
2021/01/15 09:51:41;;;;;;;20.13;11.27;;;;;;;1.42;78.90;99314.91;120293;1144;65201;-90
2021/01/15 09:54:08;;;;;;;38.70;18.20;;;;;;;1.56;78.55;99302.18;120082;1145;65178;-88
2021/01/15 09:56:47;;;;;;;29.65;16.55;;;;;;;1.70;78.65;99309.63;120010;1144;65245;-87
2021/01/15 09:59:16;;;;;;;23.00;13.33;;;;;;;1.73;78.32;99303.42;120021;1147;65097;-87
2021/01/15 10:01:47;;;;;;;24.53;13.87;;;;;;;1.68;78.18;99302.70;120026;1144;65089;-88
2021/01/15 10:04:18;;;;;;;30.07;15.33;;;;;;;1.70;78.73;99304.37;119782;1144;65143;-87
2021/01/15 10:06:46;;;;;;;26.30;12.67;;;;;;;1.82;78.55;99303.11;119918;1144;65116;-86
2021/01/15 10:09:15;;;;;;;19.75;11.10;;;;;;;1.85;77.97;99309.16;119992;1144;65108;-91
2021/01/15 10:11:46;;;;;;;14.67;8.93;;;;;;;1.66;77.98;99301.91;120161;1144;65111;-90
2021/01/15 10:14:16;;;;;;;22.93;9.50;;;;;;;1.61;78.67;99312.58;120081;1144;65100;-92
2021/01/15 10:16:47;;;;;;;21.70;11.53;;;;;;;1.50;78.30;99306.78;120012;1144;65123;-88
2021/01/15 10:19:14;;;;;;;13.70;7.67;;;;;;;1.38;77.87;99299.27;119909;1147;65205;-87
2021/01/15 10:21:40;;;;;;;15.65;8.85;;;;;;;1.35;78.88;99308.13;119752;1144;65175;-90
2021/01/15 10:24:08;;;;;;;16.60;9.07;;;;;;;1.34;79.09;99309.04;119814;1145;65095;-90
2021/01/15 10:26:37;;;;;;;18.70;9.75;;;;;;;1.30;78.78;99300.36;119829;1144;65193;-90
2021/01/15 10:29:06;;;;;;;21.17;10.97;;;;;;;1.35;79.17;99300.23;119855;1145;65263;-88
2021/01/15 10:31:43;;;;;;;16.97;9.67;;;;;;;1.38;78.60;99296.62;120192;1144;65157;-91
2021/01/15 10:34:10;;;;;;;18.43;8.13;;;;;;;1.26;78.91;99303.98;119927;1144;65098;-93
2021/01/15 10:36:40;;;;;;;22.40;11.30;;;;;;;1.12;79.00;99303.55;119792;1144;65142;-91
2021/01/15 10:39:08;;;;;;;13.25;6.75;;;;;;;1.00;78.62;99302.14;120179;1144;65038;-93
2021/01/15 10:41:46;;;;;;;20.45;10.80;;;;;;;0.93;79.28;99300.59;119765;1145;65282;-90
2021/01/15 10:44:16;;;;;;;17.77;9.37;;;;;;;1.00;79.43;99302.14;120202;1147;65120;-90
2021/01/15 10:46:49;;;;;;;23.43;13.07;;;;;;;0.91;79.48;99299.79;119983;1144;65085;-87
2021/01/15 10:49:20;;;;;;;;;;;;;;;0.98;78.94;99296.06;119687;1145;65262;-86
2021/01/15 10:51:53;;;;;;;30.97;16.93;;;;;;;1.12;79.61;99294.80;120278;1145;65104;-90
2021/01/15 10:54:20;;;;;;;28.10;13.87;;;;;;;1.17;79.46;99299.02;119795;1145;65067;-91
2021/01/15 10:56:50;;;;;;;56.07;26.53;;;;;;;1.08;78.99;99297.53;119829;1148;65086;-90
2021/01/15 10:59:16;;;;;;;45.13;20.10;;;;;;;1.03;78.82;99293.31;119847;1144;65098;-88
2021/01/15 11:01:51;;;;;;;61.33;27.47;;;;;;;1.16;79.36;99299.92;119915;1144;65105;-90
2021/01/15 11:04:21;;;;;;;146.10;69.90;;;;;;;1.29;79.23;99296.02;119682;1145;65079;-90
2021/01/15 11:06:53;;;;;;;50.33;26.77;;;;;;;1.52;79.42;99292.64;119858;1145;65114;-89
2021/01/15 11:09:20;;;;;;;29.40;20.33;;;;;;;1.60;78.82;99295.92;119887;1145;65143;-90
2021/01/15 11:11:49;;;;;;;43.30;17.50;;;;;;;1.48;78.21;99291.04;119959;1145;65532;-88
2021/01/15 11:14:20;;;;;;;24.15;12.05;;;;;;;1.41;78.79;99294.78;119828;1145;65188;-89
2021/01/15 11:16:47;;;;;;;35.60;14.40;;;;;;;1.53;79.04;99291.77;119633;1144;65159;-85
2021/01/15 11:19:17;;;;;;;27.13;11.17;;;;;;;1.65;78.64;99289.63;119657;1144;65216;-85
2021/01/15 11:21:44;;;;;;;23.43;12.17;;;;;;;1.66;79.05;99291.38;119654;1144;65104;-86
2021/01/15 11:24:14;;;;;;;40.87;18.43;;;;;;;1.63;78.89;99287.91;119374;1148;65208;-85
2021/01/15 11:26:44;;;;;;;46.87;18.27;;;;;;;1.58;78.92;99289.82;119378;1147;65139;-86